createdAt,value
2018-12-22T00:00:00.136Z,98116.27
2018-12-22T01:09:46.362Z,98142.33
2018-12-22T01:16:44.703Z,98139.53
2018-12-22T01:46:08.927Z,98151.48
2018-12-22T01:53:13.795Z,98163.81
2018-12-22T01:56:04.311Z,98164.33
2018-12-22T02:06:41.808Z,98157.91
2018-12-22T02:09:53.894Z,98141.78
2018-12-22T02:25:01.496Z,98136.75
2018-12-22T02:30:56.228Z,98133.09
2018-12-22T02:34:01.199Z,98126.78
2018-12-22T02:40:31.743Z,98149.22
2018-12-22T02:43:16.808Z,98160.39
2018-12-22T02:58:04.615Z,98152.10
2018-12-22T03:18:53.249Z,98179.86
2018-12-22T03:22:05.198Z,98057.98
2018-12-22T03:37:21.356Z,98176.31
2018-12-22T03:43:51.062Z,98181.15
2018-12-22T03:46:34.862Z,98187.70
2018-12-22T03:49:13.742Z,98184.67
2018-12-22T03:52:21.726Z,98179.06
2018-12-22T03:55:02.374Z,98173.69
2018-12-22T03:57:44.313Z,98168.92
2018-12-22T04:00:20.031Z,98173.16
2018-12-22T04:03:01.418Z,98166.15
2018-12-22T04:05:52.394Z,98152.32
2018-12-22T04:08:22.514Z,98168.36
2018-12-22T04:14:59.516Z,98143.41
2018-12-22T04:17:36.084Z,98141.27
2018-12-22T04:20:11.515Z,98144.16
2018-12-22T04:22:54.560Z,98148.48
2018-12-22T04:25:29.727Z,98147.97
2018-12-22T04:32:01.977Z,98152.05
2018-12-22T04:34:42.715Z,98154.20
2018-12-22T04:37:21.603Z,98153.97
2018-12-22T04:40:08.361Z,98152.14
2018-12-22T04:42:45.370Z,98156.66
2018-12-22T04:45:20.209Z,98146.89
2018-12-22T04:48:00.501Z,98145.48
2018-12-22T04:51:12.214Z,98152.62
2018-12-22T04:54:05.133Z,98147.81
2018-12-22T04:56:47.913Z,98137.38
2018-12-22T05:03:35.869Z,98140.33
2018-12-22T05:06:08.573Z,98152.31
2018-12-22T05:08:42.933Z,98154.66
2018-12-22T05:11:19.171Z,98151.75
2018-12-22T05:14:09.811Z,98161.84
2018-12-22T05:20:33.010Z,98152.64
2018-12-22T05:23:15.198Z,98162.50
2018-12-22T05:26:05.913Z,98149.25
2018-12-22T05:28:47.487Z,98150.13
2018-12-22T05:39:38.067Z,98149.50
2018-12-22T05:42:15.916Z,98129.03
2018-12-22T05:44:57.532Z,98128.46
2018-12-22T05:47:28.023Z,98108.95
2018-12-22T05:54:36.910Z,98101.34
2018-12-22T05:57:13.102Z,98106.56
2018-12-22T05:59:47.246Z,98105.47
2018-12-22T06:02:29.360Z,98098.55
2018-12-22T06:05:22.238Z,98100.20
2018-12-22T06:08:00.340Z,98108.46
2018-12-22T06:10:32.266Z,98110.08
2018-12-22T06:13:13.137Z,98127.14
2018-12-22T06:19:50.108Z,98152.87
2018-12-22T06:22:31.461Z,98155.29
2018-12-22T06:25:10.150Z,98133.64
2018-12-22T06:27:49.984Z,98120.53
2018-12-22T06:30:27.918Z,98118.47
2018-12-22T06:32:59.185Z,98120.27
2018-12-22T06:35:30.983Z,98117.08
2018-12-22T06:38:01.115Z,98119.16
2018-12-22T06:40:33.923Z,98104.71
2018-12-22T06:43:04.756Z,98111.97
2018-12-22T06:45:35.055Z,98095.13
2018-12-22T06:48:05.225Z,98116.20
2018-12-22T06:50:37.063Z,98101.00
2018-12-22T06:53:07.885Z,98106.60
2018-12-22T06:55:38.345Z,98083.66
2018-12-22T06:58:09.066Z,98074.81
2018-12-22T07:00:39.858Z,98070.55
2018-12-22T07:03:10.731Z,98074.28
2018-12-22T07:05:41.241Z,98062.29
2018-12-22T07:08:12.481Z,98049.19
2018-12-22T07:10:43.388Z,98058.55
2018-12-22T07:13:13.848Z,98051.88
2018-12-22T07:15:44.155Z,98054.53
2018-12-22T07:18:14.180Z,98067.02
2018-12-22T07:20:45.266Z,98120.66
2018-12-22T07:23:22.019Z,98142.65
2018-12-22T07:25:53.233Z,98153.60
2018-12-22T07:28:23.275Z,98159.20
2018-12-22T07:30:54.698Z,98170.19
2018-12-22T07:33:27.399Z,98188.14
2018-12-22T07:36:01.640Z,98207.70
2018-12-22T07:38:32.571Z,98205.02
2018-12-22T07:41:05.296Z,98230.09
2018-12-22T07:43:36.437Z,98226.08
2018-12-22T07:46:13.734Z,98229.03
2018-12-22T07:48:44.384Z,98250.16
2018-12-22T07:51:21.282Z,98230.52
2018-12-22T07:53:51.504Z,98261.56
2018-12-22T07:56:30.378Z,98267.16
2018-12-22T07:59:01.545Z,98265.23
2018-12-22T08:01:35.204Z,98265.52
2018-12-22T08:04:05.403Z,98257.48
2018-12-22T08:06:36.335Z,98244.88
2018-12-22T08:09:08.776Z,98252.03
2018-12-22T08:11:41.505Z,98255.81
2018-12-22T08:14:14.480Z,98262.38
2018-12-22T08:16:45.510Z,98249.55
2018-12-22T08:19:16.427Z,98243.42
2018-12-22T08:21:46.538Z,98246.09
2018-12-22T08:24:17.414Z,98250.36
2018-12-22T08:26:47.412Z,98248.47
2018-12-22T08:29:18.393Z,98239.06
2018-12-22T08:31:48.444Z,98262.50
2018-12-22T08:34:19.364Z,98234.16
2018-12-22T08:36:49.771Z,98280.48
2018-12-22T08:39:20.416Z,98265.27
2018-12-22T08:41:50.516Z,98272.22
2018-12-22T08:44:21.789Z,98263.94
2018-12-22T08:46:53.130Z,98277.03
2018-12-22T08:49:23.310Z,98262.17
2018-12-22T08:51:53.321Z,98255.78
2018-12-22T08:54:23.569Z,98269.88
2018-12-22T08:56:54.582Z,98258.47
2018-12-22T08:59:25.075Z,98249.38
2018-12-22T09:02:01.720Z,98244.12
2018-12-22T09:04:37.005Z,98236.12
2018-12-22T09:07:15.957Z,98224.40
2018-12-22T09:09:48.715Z,98231.85
2018-12-22T09:12:19.881Z,98214.80
2018-12-22T09:14:50.702Z,98201.45
2018-12-22T09:17:23.838Z,98216.75
2018-12-22T09:22:40.405Z,98242.52
2018-12-22T09:25:15.224Z,98225.17
2018-12-22T09:27:48.471Z,98215.52
2018-12-22T09:30:21.710Z,98204.19
2018-12-22T09:32:52.695Z,98204.84
2018-12-22T09:35:23.994Z,98185.14
2018-12-22T09:37:57.339Z,98193.98
2018-12-22T09:40:27.847Z,98199.39
2018-12-22T09:42:58.627Z,98199.44
2018-12-22T09:45:29.825Z,98211.19
2018-12-22T09:48:01.831Z,98224.60
2018-12-22T09:50:43.071Z,98207.26
2018-12-22T09:53:23.379Z,98223.55
2018-12-22T09:55:54.917Z,98198.40
2018-12-22T09:58:28.833Z,98214.69
2018-12-22T10:00:59.995Z,98217.11
2018-12-22T10:03:35.913Z,98183.42
2018-12-22T10:06:07.984Z,98192.00
2018-12-22T10:08:41.038Z,98202.41
2018-12-22T10:11:12.566Z,98185.56
2018-12-22T10:13:45.011Z,98164.98
2018-12-22T10:16:18.799Z,98189.33
2018-12-22T10:18:50.131Z,98175.42
2018-12-22T10:21:23.024Z,98229.95
2018-12-22T10:23:54.378Z,98267.41
2018-12-22T10:26:24.986Z,98254.57
2018-12-22T10:29:00.066Z,98219.53
2018-12-22T10:31:32.212Z,98213.10
2018-12-22T10:34:02.943Z,98224.07
2018-12-22T10:36:34.112Z,98216.58
2018-12-22T10:39:07.031Z,98231.80
2018-12-22T10:41:38.291Z,98196.78
2018-12-22T10:44:08.438Z,98214.72
2018-12-22T10:46:39.260Z,98212.82
2018-12-22T10:49:16.006Z,98213.10
2018-12-22T10:51:46.267Z,98227.27
2018-12-22T10:54:19.925Z,98227.27
2018-12-22T10:56:50.294Z,98222.20
2018-12-22T10:59:21.519Z,98224.84
2018-12-22T11:01:52.940Z,98223.27
2018-12-22T11:04:25.179Z,98225.13
2018-12-22T11:07:28.884Z,98218.97
2018-12-22T11:10:00.283Z,98200.79
2018-12-22T11:12:31.132Z,98207.19
2018-12-22T11:15:01.352Z,98212.80
2018-12-22T11:17:32.429Z,98217.33
2018-12-22T11:20:03.655Z,98239.98
2018-12-22T11:22:37.997Z,98225.00
2018-12-22T11:25:19.428Z,98214.88
2018-12-22T11:27:57.964Z,98211.63
2018-12-22T11:30:35.972Z,98233.28
2018-12-22T11:33:12.031Z,98233.20
2018-12-22T11:35:48.832Z,98227.05
2018-12-22T11:38:28.994Z,98227.31
2018-12-22T11:41:15.080Z,98237.39
2018-12-22T11:44:06.435Z,98268.08
2018-12-22T11:46:38.967Z,98280.30
2018-12-22T11:49:43.687Z,98274.94
2018-12-22T11:52:20.829Z,98259.62
2018-12-22T11:54:55.932Z,98241.81
2018-12-22T11:57:35.293Z,98260.05
2018-12-22T12:00:19.032Z,98272.47
2018-12-22T12:02:55.234Z,98334.36
2018-12-22T12:05:36.136Z,98353.02
2018-12-22T12:08:07.147Z,98375.17
2018-12-22T12:10:45.865Z,98343.98
2018-12-22T12:13:17.432Z,98335.02
2018-12-22T12:15:51.961Z,98325.75
2018-12-22T12:18:49.209Z,98342.11
2018-12-22T12:21:19.813Z,98331.95
2018-12-22T12:23:55.189Z,98329.55
2018-12-22T12:26:26.982Z,98341.97
2018-12-22T12:29:14.223Z,98333.75
2018-12-22T12:31:52.557Z,98333.33
2018-12-22T12:34:33.777Z,98342.39
2018-12-22T12:37:11.781Z,98341.93
2018-12-22T12:39:55.660Z,98334.75
2018-12-22T12:42:26.971Z,98327.00
2018-12-22T12:45:06.403Z,98316.09
2018-12-22T12:47:38.081Z,98318.59
2018-12-22T12:50:11.353Z,98337.08
2018-12-22T12:52:43.764Z,98346.99
2018-12-22T12:55:14.706Z,98340.61
2018-12-22T12:57:55.636Z,98339.02
2018-12-22T13:00:41.235Z,98341.44
2018-12-22T13:03:24.964Z,98352.36
2018-12-22T13:06:05.952Z,98336.08
2018-12-22T13:08:47.840Z,98342.45
2018-12-22T13:11:18.617Z,98359.00
2018-12-22T13:13:53.944Z,98371.80
2018-12-22T13:16:35.718Z,98353.92
2018-12-22T13:19:42.294Z,98357.95
2018-12-22T13:22:36.208Z,98352.13
2018-12-22T13:25:06.555Z,98348.61
2018-12-22T13:27:38.084Z,98349.70
2018-12-22T13:30:10.977Z,98349.16
2018-12-22T13:32:56.463Z,98338.48
2018-12-22T13:35:34.704Z,98337.45
2018-12-22T13:38:10.685Z,98348.58
2018-12-22T13:40:42.029Z,98348.58
2018-12-22T13:43:17.449Z,98365.45
2018-12-22T13:46:03.065Z,98405.94
2018-12-22T13:48:40.803Z,98423.27
2018-12-22T13:51:33.368Z,98416.99
2018-12-22T13:54:24.101Z,98410.52
2018-12-22T13:57:00.968Z,98401.09
2018-12-22T13:59:34.030Z,98399.74
2018-12-22T14:02:07.634Z,98413.89
2018-12-22T14:04:56.551Z,98400.57
2018-12-22T14:07:40.051Z,98399.27
2018-12-22T14:10:19.948Z,98425.32
2018-12-22T14:12:50.880Z,98411.70
2018-12-22T14:15:23.211Z,98409.20
2018-12-22T14:20:09.932Z,98409.53
2018-12-22T14:22:41.087Z,98405.36
2018-12-22T14:25:19.902Z,98414.50
2018-12-22T14:27:52.118Z,98417.14
2018-12-22T14:30:24.249Z,98414.34
2018-12-22T14:32:56.199Z,98422.81
2018-12-22T14:35:38.413Z,98422.43
2018-12-22T14:38:09.339Z,98440.20
2018-12-22T14:40:40.347Z,98451.16
2018-12-22T14:43:12.174Z,98458.97
2018-12-22T14:45:42.312Z,98465.56
2018-12-22T14:48:15.137Z,98476.20
2018-12-22T14:50:47.520Z,98481.72
2018-12-22T14:53:23.465Z,98479.89
2018-12-22T14:56:03.884Z,98478.89
2018-12-22T14:58:36.252Z,98481.83
2018-12-22T15:01:10.193Z,98492.26
2018-12-22T15:03:41.362Z,98486.21
2018-12-22T15:06:14.221Z,98491.55
2018-12-22T15:08:49.696Z,98498.52
2018-12-22T15:11:25.192Z,98507.86
2018-12-22T15:13:55.350Z,98515.31
2018-12-22T15:16:34.296Z,98527.98
2018-12-22T15:19:07.128Z,98524.47
2018-12-22T15:21:48.329Z,98521.38
2018-12-22T15:24:22.344Z,98522.09
2018-12-22T15:26:55.050Z,98523.55
2018-12-22T15:29:29.560Z,98533.89
2018-12-22T15:32:02.275Z,98531.80
